createdAt,value
2017-03-17T00:00:26.793Z,56.5
2017-03-17T00:01:28.634Z,56.5
2017-03-17T00:02:30.495Z,56.6
2017-03-17T00:03:32.347Z,56.6
2017-03-17T00:04:34.203Z,56.7
2017-03-17T00:05:36.052Z,56.6
2017-03-17T00:06:38.251Z,56.6
2017-03-17T00:07:40.101Z,56.8
2017-03-17T00:08:41.951Z,56.6
2017-03-17T00:09:43.801Z,56.8
2017-03-17T00:10:45.645Z,56.8
2017-03-17T00:11:47.497Z,56.7
2017-03-17T00:12:49.349Z,56.8
2017-03-17T00:13:51.224Z,56.7
2017-03-17T00:14:53.064Z,56.8
2017-03-17T00:15:54.916Z,56.8
2017-03-17T00:16:57.101Z,56.8
2017-03-17T00:17:59.284Z,56.7
2017-03-17T00:19:01.138Z,56.7
2017-03-17T00:20:02.990Z,56.9
2017-03-17T00:21:04.856Z,56.8
2017-03-17T00:22:07.045Z,56.8
2017-03-17T00:23:09.234Z,56.8
2017-03-17T00:24:11.092Z,56.8
2017-03-17T00:25:12.944Z,56.8
2017-03-17T00:26:14.801Z,56.8
2017-03-17T00:27:16.646Z,56.7
2017-03-17T00:28:18.505Z,56.8
2017-03-17T00:29:20.353Z,56.8
2017-03-17T00:30:22.208Z,57
2017-03-17T00:31:24.056Z,56.8
2017-03-17T00:32:25.907Z,56.8
2017-03-17T00:33:27.758Z,56.8
2017-03-17T00:34:29.618Z,56.9
2017-03-17T00:35:31.473Z,56.9
2017-03-17T00:36:33.315Z,56.9
2017-03-17T00:37:35.170Z,56.7
2017-03-17T00:38:37.016Z,56.8
2017-03-17T00:39:38.871Z,56.9
2017-03-17T00:40:40.719Z,56.8
2017-03-17T00:41:42.913Z,56.8
2017-03-17T00:42:44.757Z,56.8
2017-03-17T00:43:46.645Z,56.8
2017-03-17T00:44:48.497Z,56.8
2017-03-17T00:45:50.375Z,56.9
2017-03-17T00:46:52.231Z,56.9
2017-03-17T00:47:54.073Z,56.9
2017-03-17T00:48:55.932Z,56.8
2017-03-17T00:49:57.787Z,56.9
2017-03-17T00:50:59.638Z,57
2017-03-17T00:52:01.485Z,56.9
2017-03-17T00:53:03.330Z,56.9
2017-03-17T00:54:05.187Z,56.8
2017-03-17T00:55:07.040Z,56.8
2017-03-17T00:56:08.884Z,56.9
2017-03-17T00:57:10.730Z,56.9
2017-03-17T00:58:12.576Z,56.9
2017-03-17T00:59:14.427Z,56.9
2017-03-17T01:00:16.276Z,56.8
2017-03-17T01:01:18.128Z,56.9
2017-03-17T01:02:19.993Z,57
2017-03-17T01:03:21.860Z,57
2017-03-17T01:04:23.708Z,57
2017-03-17T01:05:25.562Z,57.1
2017-03-17T01:06:27.411Z,57.1
2017-03-17T01:07:29.265Z,57.1
2017-03-17T01:08:31.109Z,57.2
2017-03-17T01:09:32.978Z,57.2
2017-03-17T01:10:34.824Z,57.2
2017-03-17T01:11:36.677Z,57.2
2017-03-17T01:12:38.527Z,57
2017-03-17T01:13:40.719Z,57.1
2017-03-17T01:14:42.571Z,57.1
2017-03-17T01:15:44.428Z,57.1
2017-03-17T01:16:46.623Z,57.1
2017-03-17T01:17:48.464Z,57.1
2017-03-17T01:18:50.322Z,57
2017-03-17T01:19:52.171Z,57.1
2017-03-17T01:20:54.041Z,57.1
2017-03-17T01:21:55.892Z,57.1
2017-03-17T01:22:58.089Z,57.1
2017-03-17T01:24:00.274Z,57.1
2017-03-17T01:25:02.125Z,57.1
2017-03-17T01:26:03.971Z,57.1
2017-03-17T01:27:05.823Z,57.1
2017-03-17T01:28:07.681Z,57.1
2017-03-17T01:29:09.524Z,57.1
2017-03-17T01:30:11.411Z,57.1
2017-03-17T01:31:13.264Z,57.1
2017-03-17T01:32:15.118Z,57.1
2017-03-17T01:33:16.959Z,57.2
2017-03-17T01:34:18.814Z,57.1
2017-03-17T01:35:21.018Z,57.2
2017-03-17T01:36:23.206Z,57.2
2017-03-17T01:37:25.414Z,57.2
2017-03-17T01:38:27.265Z,57.2
2017-03-17T01:39:29.111Z,57.2
2017-03-17T01:40:30.965Z,57.2
2017-03-17T01:41:32.816Z,57.3
2017-03-17T01:42:34.666Z,57.2
2017-03-17T01:43:36.855Z,57.3
2017-03-17T01:44:38.710Z,57.3
2017-03-17T01:45:40.553Z,57.3
2017-03-17T01:46:42.399Z,57.2
2017-03-17T01:47:44.251Z,57.2
2017-03-17T01:48:46.097Z,57.2
2017-03-17T01:49:48.280Z,57.2
2017-03-17T01:50:50.121Z,57.2
2017-03-17T01:51:51.965Z,57.2
2017-03-17T01:52:53.813Z,57.2
2017-03-17T01:53:55.662Z,57.2
2017-03-17T01:54:57.508Z,57.2
2017-03-17T01:55:59.358Z,57.3
2017-03-17T01:57:01.209Z,57.4
2017-03-17T01:58:03.057Z,57.3
2017-03-17T01:59:04.909Z,57.3
2017-03-17T02:00:06.780Z,57.4
2017-03-17T02:01:08.625Z,57.4
2017-03-17T02:02:10.481Z,57.5
2017-03-17T02:03:12.324Z,57.4
2017-03-17T02:04:14.182Z,57.5
2017-03-17T02:05:16.023Z,57.4
2017-03-17T02:06:17.878Z,57.3
2017-03-17T02:07:19.734Z,57.4
2017-03-17T02:08:21.922Z,57.5
2017-03-17T02:09:23.771Z,57.5
2017-03-17T02:10:25.615Z,57.4
2017-03-17T02:11:27.469Z,57.4
2017-03-17T02:12:29.343Z,57.5
2017-03-17T02:13:31.204Z,57.5
2017-03-17T02:14:33.391Z,57.4
2017-03-17T02:15:35.234Z,57.4
2017-03-17T02:16:37.091Z,57.5
2017-03-17T02:17:38.936Z,57.5
2017-03-17T02:18:41.137Z,57.5
2017-03-17T02:19:42.988Z,57.4
2017-03-17T02:20:44.846Z,57.4
2017-03-17T02:21:46.705Z,57.5
2017-03-17T02:22:48.554Z,57.5
2017-03-17T02:23:50.406Z,57.6
2017-03-17T02:24:52.257Z,57.6
2017-03-17T02:25:54.104Z,57.6
2017-03-17T02:26:55.970Z,57.5
2017-03-17T02:27:57.813Z,57.5
2017-03-17T02:28:59.665Z,57.4
2017-03-17T02:30:01.514Z,57.4
2017-03-17T02:31:03.367Z,57.5
2017-03-17T02:32:05.547Z,57.5
2017-03-17T02:33:07.389Z,57.6
2017-03-17T02:34:09.237Z,57.5
2017-03-17T02:35:11.095Z,57.6
2017-03-17T02:36:13.054Z,57.6
2017-03-17T02:37:15.249Z,57.6
2017-03-17T02:38:17.097Z,57.6
2017-03-17T02:39:19.299Z,57.6
2017-03-17T02:40:21.148Z,57.6
2017-03-17T02:41:23.002Z,57.6
2017-03-17T02:42:24.845Z,57.6
2017-03-17T02:43:27.045Z,57.7
2017-03-17T02:44:29.235Z,57.6
2017-03-17T02:45:31.427Z,57.7
2017-03-17T02:46:33.271Z,57.7
2017-03-17T02:47:35.475Z,57.8
2017-03-17T02:48:37.339Z,57.7
2017-03-17T02:49:39.209Z,57.8
2017-03-17T02:50:41.404Z,57.7
2017-03-17T02:51:43.248Z,57.8
2017-03-17T02:52:45.450Z,57.8
2017-03-17T02:53:47.994Z,57.7
2017-03-17T02:54:50.207Z,57.7
2017-03-17T02:55:52.064Z,57.7
2017-03-17T02:56:54.248Z,57.7
2017-03-17T02:57:56.104Z,57.7
2017-03-17T02:58:59.323Z,57.8
2017-03-17T03:00:01.513Z,57.8
2017-03-17T03:01:03.360Z,57.8
2017-03-17T03:02:05.213Z,57.9
2017-03-17T03:03:07.075Z,57.8
2017-03-17T03:04:08.935Z,57.8
2017-03-17T03:05:11.156Z,57.7
2017-03-17T03:06:13.014Z,57.8
2017-03-17T03:07:14.864Z,57.7
2017-03-17T03:08:16.716Z,57.7
2017-03-17T03:09:18.574Z,57.7
2017-03-17T03:10:20.424Z,57.8
2017-03-17T03:11:22.275Z,57.9
2017-03-17T03:12:24.151Z,57.9
2017-03-17T03:13:26.005Z,57.9
2017-03-17T03:14:28.193Z,57.8
2017-03-17T03:15:30.050Z,57.8
2017-03-17T03:16:31.911Z,57.7
2017-03-17T03:17:34.120Z,57.7
2017-03-17T03:18:35.980Z,57.6
2017-03-17T03:19:38.178Z,57.6
2017-03-17T03:20:40.037Z,57.6
2017-03-17T03:21:41.894Z,57.7
2017-03-17T03:22:43.743Z,57.7
2017-03-17T03:23:45.924Z,57.8
2017-03-17T03:24:48.125Z,57.8
2017-03-17T03:25:49.981Z,57.9
2017-03-17T03:26:51.836Z,57.8
2017-03-17T03:27:54.026Z,57.9
2017-03-17T03:28:55.895Z,57.9
2017-03-17T03:29:57.753Z,57.9
2017-03-17T03:30:59.620Z,57.9
2017-03-17T03:32:01.471Z,57.8
2017-03-17T03:33:03.316Z,57.8
2017-03-17T03:34:05.171Z,57.9
2017-03-17T03:35:07.028Z,57.7
2017-03-17T03:36:08.893Z,57.9
2017-03-17T03:37:10.750Z,57.9
2017-03-17T03:38:12.593Z,57.9
2017-03-17T03:39:14.453Z,57.8
2017-03-17T03:40:16.300Z,57.9
2017-03-17T03:41:18.155Z,57.8
2017-03-17T03:42:20.009Z,57.9
2017-03-17T03:43:22.192Z,57.9
2017-03-17T03:44:24.037Z,58
2017-03-17T03:45:25.901Z,57.9
2017-03-17T03:46:27.750Z,58
2017-03-17T03:47:29.601Z,58
2017-03-17T03:48:31.787Z,57.9
2017-03-17T03:49:34.001Z,57.9
2017-03-17T03:50:35.850Z,57.9
2017-03-17T03:51:37.707Z,57.8
2017-03-17T03:52:39.561Z,57.9
2017-03-17T03:53:41.444Z,57.9
2017-03-17T03:54:43.986Z,57.9
2017-03-17T03:55:45.872Z,57.8
2017-03-17T03:56:47.719Z,57.9
2017-03-17T03:57:49.925Z,57.9
2017-03-17T03:58:52.128Z,57.8
2017-03-17T03:59:54.331Z,57.8
2017-03-17T04:00:56.172Z,57.7
2017-03-17T04:01:58.049Z,57.8
2017-03-17T04:03:00.239Z,57.8
2017-03-17T04:04:02.438Z,57.8
2017-03-17T04:05:04.296Z,57.9
2017-03-17T04:06:06.143Z,58
2017-03-17T04:07:08.325Z,58
2017-03-17T04:08:10.183Z,58
2017-03-17T04:09:12.028Z,58
2017-03-17T04:10:14.228Z,58
2017-03-17T04:11:16.080Z,57.9
2017-03-17T04:12:17.937Z,57.9
2017-03-17T04:13:20.474Z,57.9
2017-03-17T04:14:22.334Z,57.9
2017-03-17T04:15:24.191Z,58
2017-03-17T04:16:26.038Z,58
2017-03-17T04:17:27.900Z,58
2017-03-17T04:18:29.754Z,57.9
2017-03-17T04:19:31.956Z,58
2017-03-17T04:20:33.807Z,58
2017-03-17T04:21:35.660Z,57.9
2017-03-17T04:22:37.502Z,58
2017-03-17T04:23:39.695Z,57.8
2017-03-17T04:24:41.882Z,57.8
2017-03-17T04:25:43.738Z,57.8
2017-03-17T04:26:45.587Z,57.8
2017-03-17T04:27:47.773Z,57.8
2017-03-17T04:28:49.994Z,57.9
2017-03-17T04:29:52.191Z,57.7
2017-03-17T04:30:54.061Z,57.8
2017-03-17T04:31:56.260Z,57.8
2017-03-17T04:32:58.462Z,58
2017-03-17T04:34:00.322Z,58.1
2017-03-17T04:35:02.182Z,58
2017-03-17T04:36:04.024Z,58
2017-03-17T04:37:05.879Z,58
2017-03-17T04:38:07.727Z,58
2017-03-17T04:39:09.938Z,57.8
2017-03-17T04:40:11.779Z,57.9
2017-03-17T04:41:13.964Z,57.9
2017-03-17T04:42:15.815Z,57.9
2017-03-17T04:43:17.697Z,58
2017-03-17T04:44:19.897Z,58
2017-03-17T04:45:21.744Z,58
2017-03-17T04:46:23.587Z,58
2017-03-17T04:47:25.788Z,58
2017-03-17T04:48:27.646Z,58
2017-03-17T04:49:29.885Z,58
2017-03-17T04:50:31.736Z,58.1
2017-03-17T04:51:33.590Z,58
2017-03-17T04:52:35.442Z,58
2017-03-17T04:53:37.301Z,58
2017-03-17T04:54:39.841Z,58.1
2017-03-17T04:55:41.702Z,58.1
2017-03-17T04:56:43.897Z,58.2
2017-03-17T04:57:45.753Z,58.1
2017-03-17T04:58:47.600Z,58.1
2017-03-17T04:59:49.457Z,58
2017-03-17T05:00:51.654Z,58.2
2017-03-17T05:01:53.513Z,58.2
2017-03-17T05:02:55.364Z,58.2
2017-03-17T05:03:57.215Z,58.2
2017-03-17T05:04:59.422Z,58.3
2017-03-17T05:06:01.277Z,58.2
2017-03-17T05:07:03.131Z,58.2
2017-03-17T05:08:04.990Z,58.2
2017-03-17T05:09:07.177Z,58.2
2017-03-17T05:10:09.025Z,58.2
2017-03-17T05:11:10.871Z,58.1
2017-03-17T05:12:12.729Z,58.2
2017-03-17T05:13:14.575Z,58.2
2017-03-17T05:14:16.772Z,58.2
2017-03-17T05:15:18.619Z,58.2
2017-03-17T05:16:20.472Z,58.3
2017-03-17T05:17:22.334Z,58.3
2017-03-17T05:18:24.188Z,58.4
2017-03-17T05:19:26.032Z,58.4
2017-03-17T05:20:27.917Z,58.4
2017-03-17T05:21:29.766Z,58.4
2017-03-17T05:22:31.614Z,58.4
2017-03-17T05:23:33.469Z,58.4
2017-03-17T05:24:35.359Z,58.4
2017-03-17T05:25:37.215Z,58.6
2017-03-17T05:26:39.407Z,58.5
2017-03-17T05:27:41.601Z,58.4
2017-03-17T05:28:43.482Z,58.5
2017-03-17T05:29:45.685Z,58.4
2017-03-17T05:30:47.546Z,58.4
2017-03-17T05:31:49.723Z,58.5
2017-03-17T05:32:51.581Z,58.5
2017-03-17T05:33:53.451Z,58.4
2017-03-17T05:34:55.319Z,58.4
2017-03-17T05:35:57.540Z,58.5
2017-03-17T05:36:59.506Z,58.4
2017-03-17T05:38:01.356Z,58.5
2017-03-17T05:39:04.228Z,58.5
2017-03-17T05:40:06.087Z,58.5
2017-03-17T05:41:08.296Z,58.5
2017-03-17T05:42:10.152Z,58.6
2017-03-17T05:43:12.350Z,58.6
2017-03-17T05:44:14.549Z,58.5
2017-03-17T05:45:16.400Z,58.6
2017-03-17T05:46:18.603Z,58.5
2017-03-17T05:47:20.448Z,58.5
2017-03-17T05:48:22.648Z,58.5
2017-03-17T05:49:24.497Z,58.6
2017-03-17T05:50:26.344Z,58.6
2017-03-17T05:51:28.199Z,58.6
2017-03-17T05:52:30.053Z,58.6
2017-03-17T05:53:31.908Z,58.7
2017-03-17T05:54:33.764Z,58.8
2017-03-17T05:55:35.607Z,58.8
2017-03-17T05:56:37.455Z,58.8
2017-03-17T05:57:39.685Z,58.9
2017-03-17T05:58:41.882Z,58.9
2017-03-17T05:59:43.739Z,58.9
2017-03-17T06:00:45.578Z,58.9
2017-03-17T06:01:47.441Z,58.9
2017-03-17T06:02:49.285Z,59
2017-03-17T06:03:51.140Z,58.9
2017-03-17T06:04:54.019Z,58.9
2017-03-17T06:05:56.214Z,58.9
2017-03-17T06:06:58.079Z,58.9
2017-03-17T06:07:59.928Z,58.9
2017-03-17T06:09:01.777Z,59
2017-03-17T06:10:03.992Z,59
2017-03-17T06:11:05.844Z,59
2017-03-17T06:12:08.042Z,59
2017-03-17T06:13:10.604Z,59.1
2017-03-17T06:14:12.797Z,59.2
2017-03-17T06:15:14.650Z,59.1
2017-03-17T06:16:16.499Z,59.2
2017-03-17T06:17:18.358Z,59.2
2017-03-17T06:18:20.208Z,59
2017-03-17T06:19:22.078Z,59
2017-03-17T06:20:24.275Z,59
2017-03-17T06:21:26.119Z,59.1
2017-03-17T06:22:27.972Z,59.2
2017-03-17T06:23:29.833Z,59.1
2017-03-17T06:24:32.379Z,59.2
2017-03-17T06:25:34.231Z,59.1
2017-03-17T06:26:36.425Z,59.1
2017-03-17T06:27:38.273Z,59.2
2017-03-17T06:28:40.487Z,59.2
2017-03-17T06:29:42.345Z,59.2
2017-03-17T06:30:44.200Z,59.2
2017-03-17T06:31:46.046Z,59.2
2017-03-17T06:32:48.245Z,59.1
2017-03-17T06:33:50.445Z,59.2
2017-03-17T06:34:52.310Z,59.2
2017-03-17T06:35:54.501Z,59.2
2017-03-17T06:36:56.360Z,59.2
2017-03-17T06:37:58.207Z,59.2
2017-03-17T06:39:00.069Z,59.3
2017-03-17T06:40:01.925Z,59.3
2017-03-17T06:41:03.773Z,59.3
2017-03-17T06:42:05.621Z,59.3
2017-03-17T06:43:07.480Z,59.4
2017-03-17T06:44:09.334Z,59.4
2017-03-17T06:45:11.180Z,59.4
2017-03-17T06:46:13.703Z,59.4
2017-03-17T06:47:15.547Z,59.5
2017-03-17T06:48:17.416Z,59.6
2017-03-17T06:49:19.273Z,59.5
2017-03-17T06:50:21.525Z,59.5
2017-03-17T06:51:23.377Z,59.6
2017-03-17T06:52:25.226Z,59.6
2017-03-17T06:53:27.077Z,59.7
2017-03-17T06:54:29.259Z,59.7
2017-03-17T06:55:31.112Z,59.7
2017-03-17T06:56:32.961Z,59.7
2017-03-17T06:57:35.158Z,59.8
2017-03-17T06:58:37.697Z,59.9
2017-03-17T06:59:39.553Z,60
2017-03-17T07:00:41.406Z,60
2017-03-17T07:01:43.260Z,60
2017-03-17T07:02:45.110Z,60
2017-03-17T07:03:47.638Z,60
2017-03-17T07:04:50.512Z,60
2017-03-17T07:05:52.365Z,59.9
2017-03-17T07:06:54.220Z,60
2017-03-17T07:07:56.106Z,60
2017-03-17T07:08:58.318Z,60.1
2017-03-17T07:10:00.508Z,60.2
2017-03-17T07:11:02.363Z,60.3
2017-03-17T07:12:04.205Z,60.2
2017-03-17T07:13:06.397Z,60.3
2017-03-17T07:14:08.590Z,60.3
2017-03-17T07:15:10.448Z,60.2
2017-03-17T07:16:12.309Z,60.1
2017-03-17T07:17:14.159Z,60.3
2017-03-17T07:18:16.025Z,60.2
2017-03-17T07:19:17.885Z,60.1
2017-03-17T07:20:20.084Z,60
2017-03-17T07:21:21.944Z,60.1
2017-03-17T07:22:23.788Z,60.2
2017-03-17T07:23:25.648Z,60.1
2017-03-17T07:24:27.826Z,60.1
2017-03-17T07:25:30.368Z,60.1
2017-03-17T07:26:32.222Z,60.1
2017-03-17T07:27:34.079Z,60.1
2017-03-17T07:28:36.604Z,60.2
2017-03-17T07:29:39.154Z,60
2017-03-17T07:30:40.998Z,60
2017-03-17T07:31:42.857Z,60
2017-03-17T07:32:44.709Z,60.1
2017-03-17T07:33:47.251Z,60.3
2017-03-17T07:34:49.790Z,60.3
2017-03-17T07:35:51.651Z,60.2
2017-03-17T07:36:53.517Z,60
2017-03-17T07:37:55.376Z,60
2017-03-17T07:38:57.580Z,60
2017-03-17T07:39:59.789Z,60
2017-03-17T07:41:01.638Z,60.1
2017-03-17T07:42:03.495Z,60
2017-03-17T07:43:06.031Z,60.1
2017-03-17T07:44:07.913Z,60.1
2017-03-17T07:45:09.759Z,60
2017-03-17T07:46:11.608Z,60
2017-03-17T07:47:13.452Z,60
2017-03-17T07:48:15.311Z,60
2017-03-17T07:49:17.164Z,60
2017-03-17T07:50:19.721Z,60.1
2017-03-17T07:51:21.563Z,60.1
2017-03-17T07:52:23.420Z,60.1
2017-03-17T07:53:25.944Z,60
2017-03-17T07:54:28.143Z,60
2017-03-17T07:55:30.348Z,60
2017-03-17T07:56:32.206Z,60
2017-03-17T07:57:34.064Z,60
2017-03-17T07:58:35.923Z,60
2017-03-17T07:59:37.790Z,60
2017-03-17T08:00:39.977Z,60.1
2017-03-17T08:01:41.835Z,60.1
2017-03-17T08:02:43.702Z,60
2017-03-17T08:03:45.566Z,60
2017-03-17T08:04:47.770Z,60
2017-03-17T08:05:49.617Z,60.2
2017-03-17T08:06:51.475Z,60.2
2017-03-17T08:07:53.336Z,60
2017-03-17T08:08:55.874Z,60
2017-03-17T08:09:58.066Z,60
2017-03-17T08:11:00.275Z,60
2017-03-17T08:12:02.142Z,60
2017-03-17T08:13:04.356Z,60
2017-03-17T08:14:06.550Z,60
2017-03-17T08:15:08.429Z,60.2
2017-03-17T08:16:10.281Z,60.3
2017-03-17T08:17:12.138Z,60.4
2017-03-17T08:18:14.329Z,60.4
2017-03-17T08:19:16.536Z,60.2
2017-03-17T08:20:18.728Z,60.3
2017-03-17T08:21:20.584Z,60.5
2017-03-17T08:22:22.433Z,60.7
2017-03-17T08:23:24.615Z,60.9
2017-03-17T08:24:27.159Z,61
2017-03-17T08:25:29.699Z,61.4
2017-03-17T08:26:31.915Z,61.4
2017-03-17T08:27:33.768Z,61.3
2017-03-17T08:28:35.959Z,61.1
2017-03-17T08:29:37.816Z,60.7
2017-03-17T08:30:40.016Z,60.9
2017-03-17T08:31:41.869Z,61.1
2017-03-17T08:32:43.724Z,61.2
2017-03-17T08:33:45.593Z,60.9
2017-03-17T08:34:47.451Z,60.3
2017-03-17T08:35:49.647Z,60.2
2017-03-17T08:36:51.528Z,60.1
2017-03-17T08:37:53.713Z,60
2017-03-17T08:38:55.585Z,60.4
2017-03-17T08:39:57.447Z,60.5
2017-03-17T08:40:59.317Z,60.5
2017-03-17T08:42:01.156Z,60
2017-03-17T08:43:03.374Z,60
2017-03-17T08:44:05.260Z,60.1
2017-03-17T08:45:07.446Z,60.3
2017-03-17T08:46:09.306Z,60.3
2017-03-17T08:47:11.148Z,60.9
2017-03-17T08:48:13.017Z,61.2
2017-03-17T08:49:14.870Z,61.1
2017-03-17T08:50:16.740Z,60.8
2017-03-17T08:51:18.609Z,60.6
2017-03-17T08:52:20.464Z,60
2017-03-17T08:53:22.332Z,60
2017-03-17T08:54:24.197Z,59.8
2017-03-17T08:55:26.076Z,59.9
2017-03-17T08:56:27.962Z,59.8
2017-03-17T08:57:29.817Z,59.4
2017-03-17T08:58:31.675Z,59.3
2017-03-17T08:59:33.529Z,59.2
2017-03-17T09:00:35.391Z,58.7
2017-03-17T09:01:37.251Z,58.4
2017-03-17T09:02:39.110Z,58.2
2017-03-17T09:03:40.967Z,57.9
2017-03-17T09:04:43.153Z,58
2017-03-17T09:05:45.008Z,57.8
2017-03-17T09:06:46.867Z,58
2017-03-17T09:07:48.725Z,57.7
2017-03-17T09:08:51.258Z,57.4
2017-03-17T09:09:53.114Z,57.5
2017-03-17T09:10:55.318Z,57.6
2017-03-17T09:11:57.168Z,57.7
2017-03-17T09:12:59.026Z,57.7
2017-03-17T09:14:00.884Z,57.8
2017-03-17T09:15:02.732Z,57.9
2017-03-17T09:16:04.596Z,57.7
2017-03-17T09:17:06.450Z,57.5
2017-03-17T09:18:08.299Z,57.4
2017-03-17T09:19:10.154Z,57.4
2017-03-17T09:20:12.017Z,57.5
2017-03-17T09:21:13.864Z,57.6
2017-03-17T09:22:15.720Z,57.6
2017-03-17T09:23:17.602Z,57.9
2017-03-17T09:24:19.812Z,58.1
2017-03-17T09:25:22.007Z,58.3
2017-03-17T09:26:23.875Z,58.2
2017-03-17T09:27:25.729Z,57.8
2017-03-17T09:28:27.573Z,58
2017-03-17T09:29:29.437Z,58.2
2017-03-17T09:30:31.631Z,58.2
2017-03-17T09:31:33.490Z,58.2
2017-03-17T09:32:35.349Z,58.1
2017-03-17T09:33:37.559Z,57.8
2017-03-17T09:34:39.422Z,57.6
2017-03-17T09:35:41.269Z,57.7
2017-03-17T09:36:43.131Z,57.6
2017-03-17T09:37:44.990Z,57.6
2017-03-17T09:38:46.861Z,57.6
2017-03-17T09:39:48.724Z,57.5
2017-03-17T09:40:50.582Z,57.5
2017-03-17T09:41:52.441Z,57.6
2017-03-17T09:42:54.290Z,57.6
2017-03-17T09:43:56.147Z,57.3
2017-03-17T09:44:58.060Z,57.2
2017-03-17T09:45:59.909Z,57.4
2017-03-17T09:47:01.775Z,57.5
2017-03-17T09:48:03.631Z,57.5
2017-03-17T09:49:05.485Z,57.4
2017-03-17T09:50:07.337Z,57.3
2017-03-17T09:51:09.191Z,57.3
2017-03-17T09:52:11.048Z,57.2
2017-03-17T09:53:12.907Z,57.3
2017-03-17T09:54:14.766Z,57.5
2017-03-17T09:55:17.306Z,57.6
2017-03-17T09:56:19.152Z,57.6
2017-03-17T09:57:21.013Z,57.6
2017-03-17T09:58:23.207Z,57.7
2017-03-17T09:59:25.406Z,57.5
2017-03-17T10:00:27.603Z,57.3
2017-03-17T10:01:29.471Z,57.2
2017-03-17T10:02:31.329Z,56.9
2017-03-17T10:03:33.215Z,56.5
2017-03-17T10:04:35.056Z,56.4
2017-03-17T10:05:36.918Z,56.4
2017-03-17T10:06:38.782Z,56.6
2017-03-17T10:07:40.641Z,56.7
2017-03-17T10:08:42.491Z,56.8
2017-03-17T10:09:44.348Z,56.7
2017-03-17T10:10:46.206Z,56.7
2017-03-17T10:11:48.051Z,56.6
2017-03-17T10:12:49.900Z,56.6
2017-03-17T10:13:51.765Z,56.6
2017-03-17T10:14:53.985Z,56.7
2017-03-17T10:15:55.847Z,56.8
2017-03-17T10:16:57.705Z,56.7
2017-03-17T10:17:59.553Z,56.4
2017-03-17T10:19:01.406Z,56.4
2017-03-17T10:20:03.601Z,56.5
2017-03-17T10:21:05.459Z,56.7
2017-03-17T10:22:07.658Z,56.8
2017-03-17T10:23:09.523Z,56.9
2017-03-17T10:24:11.379Z,56.8
2017-03-17T10:25:13.236Z,56.7
2017-03-17T10:26:15.085Z,56.8
2017-03-17T10:27:16.957Z,56.8
2017-03-17T10:28:18.813Z,56.8
2017-03-17T10:29:20.705Z,56.9
2017-03-17T10:30:22.909Z,56.9
2017-03-17T10:31:24.753Z,57
2017-03-17T10:32:26.618Z,57
2017-03-17T10:33:28.526Z,56.9
2017-03-17T10:34:30.372Z,56.8
2017-03-17T10:35:32.293Z,57
2017-03-17T10:36:34.172Z,57
2017-03-17T10:37:36.034Z,56.9
2017-03-17T10:38:37.903Z,57
2017-03-17T10:39:41.182Z,57
2017-03-17T10:40:43.905Z,57
2017-03-17T10:41:45.752Z,57.1
2017-03-17T10:42:47.662Z,56.7
2017-03-17T10:43:49.537Z,56.4
2017-03-17T10:44:51.821Z,56.3
2017-03-17T10:45:53.713Z,56
2017-03-17T10:46:55.655Z,55.8
2017-03-17T10:47:57.528Z,55.9
2017-03-17T10:48:59.431Z,55.7
2017-03-17T10:50:01.701Z,55.6
2017-03-17T10:51:03.578Z,55.3
2017-03-17T10:52:05.495Z,55
2017-03-17T10:53:07.394Z,55
2017-03-17T10:54:09.619Z,55.4
2017-03-17T10:55:11.844Z,55.6
2017-03-17T10:56:13.702Z,55.8
2017-03-17T10:57:15.567Z,55.9
2017-03-17T10:58:17.805Z,56.3
2017-03-17T10:59:19.677Z,56.4
2017-03-17T11:00:21.547Z,56.4
2017-03-17T11:01:23.403Z,56.2
2017-03-17T11:02:25.333Z,56
2017-03-17T11:03:27.531Z,56
2017-03-17T11:04:29.380Z,55.9
2017-03-17T11:05:31.305Z,55.9
2017-03-17T11:06:33.185Z,55.7
2017-03-17T11:07:35.429Z,55.5
2017-03-17T11:08:37.990Z,55.5
2017-03-17T11:09:39.855Z,55.5
2017-03-17T11:10:41.721Z,55.7
2017-03-17T11:11:43.922Z,55.8
2017-03-17T11:12:46.168Z,56
2017-03-17T11:13:48.399Z,56
2017-03-17T11:14:50.258Z,56.2
2017-03-17T11:15:52.129Z,56.2
2017-03-17T11:16:53.984Z,56.4
2017-03-17T11:17:55.974Z,56.8
2017-03-17T11:18:58.179Z,57.1
2017-03-17T11:20:00.432Z,57.3
2017-03-17T11:21:02.293Z,57.4
2017-03-17T11:22:04.140Z,57.6
2017-03-17T11:23:06.094Z,57.4
2017-03-17T11:24:07.971Z,57
2017-03-17T11:25:09.830Z,56.9
2017-03-17T11:26:11.689Z,56.8
2017-03-17T11:27:13.536Z,56.4
2017-03-17T11:28:15.404Z,56.2
2017-03-17T11:29:17.612Z,55.8
2017-03-17T11:30:19.840Z,56
2017-03-17T11:31:21.694Z,55.9
2017-03-17T11:32:23.571Z,55.6
2017-03-17T11:33:25.594Z,55.7
2017-03-17T11:34:28.326Z,55.6
2017-03-17T11:35:30.186Z,55.3
2017-03-17T11:36:32.388Z,55.1
2017-03-17T11:37:34.323Z,54.9
2017-03-17T11:38:36.188Z,54.8
2017-03-17T11:39:38.067Z,54.4
2017-03-17T11:40:39.920Z,54.3
2017-03-17T11:41:41.811Z,54.1
2017-03-17T11:42:43.682Z,53.8
2017-03-17T11:43:45.564Z,53.4
2017-03-17T11:44:47.791Z,53
2017-03-17T11:45:49.648Z,53.3
2017-03-17T11:46:51.521Z,53.2
2017-03-17T11:47:53.404Z,52.9
2017-03-17T11:48:55.974Z,52.8
2017-03-17T11:49:57.840Z,53.4
2017-03-17T11:51:00.043Z,53.9
2017-03-17T11:52:02.134Z,54.3
2017-03-17T11:53:03.999Z,54.2
2017-03-17T11:54:06.105Z,53.6
2017-03-17T11:55:08.303Z,53.2
2017-03-17T11:56:10.261Z,52.7
2017-03-17T11:57:12.128Z,52.3
2017-03-17T11:58:13.993Z,52.6
2017-03-17T11:59:16.291Z,53.2
2017-03-17T12:00:18.157Z,52.9
2017-03-17T12:01:20.017Z,53.2
2017-03-17T12:02:22.213Z,53.5
2017-03-17T12:03:24.414Z,53.4
2017-03-17T12:04:26.274Z,53.3
2017-03-17T12:05:28.142Z,53
2017-03-17T12:06:29.999Z,52.8
2017-03-17T12:07:32.119Z,52.5
2017-03-17T12:08:34.082Z,52.3
2017-03-17T12:09:35.988Z,52.3
2017-03-17T12:10:37.856Z,52.3
2017-03-17T12:11:40.127Z,52.1
2017-03-17T12:12:44.967Z,52.2
2017-03-17T12:13:47.078Z,52.5
2017-03-17T12:14:48.958Z,52.8
2017-03-17T12:15:50.813Z,52.9
2017-03-17T12:16:52.669Z,53.1
2017-03-17T12:17:54.581Z,52.9
2017-03-17T12:18:56.487Z,52.9
2017-03-17T12:19:58.706Z,52.7
2017-03-17T12:21:00.563Z,52.6
2017-03-17T12:22:02.907Z,52.6
2017-03-17T12:23:05.117Z,52.4
2017-03-17T12:24:06.976Z,52.4
2017-03-17T12:25:08.861Z,52.3
2017-03-17T12:26:10.761Z,52.4
2017-03-17T12:27:12.817Z,52.5
2017-03-17T12:28:14.690Z,52.6
2017-03-17T12:29:16.570Z,52.5
2017-03-17T12:30:18.557Z,52.6
2017-03-17T12:31:20.938Z,52.6
2017-03-17T12:32:22.800Z,52.7
2017-03-17T12:33:24.703Z,52.7
2017-03-17T12:34:28.078Z,52.8
2017-03-17T12:35:30.302Z,52.9
2017-03-17T12:36:32.214Z,53
2017-03-17T12:37:34.490Z,53.1
2017-03-17T12:38:36.723Z,53.3
2017-03-17T12:39:42.160Z,53
2017-03-17T12:40:47.125Z,53.1
2017-03-17T12:41:51.516Z,53.1
2017-03-17T12:42:55.374Z,53
2017-03-17T12:44:00.802Z,52.7
2017-03-17T12:45:05.521Z,52.6
2017-03-17T12:46:07.384Z,52.6
2017-03-17T12:47:09.258Z,52.5
2017-03-17T12:48:11.109Z,52.5
2017-03-17T12:49:13.512Z,52.7
2017-03-17T12:50:15.363Z,53
2017-03-17T12:51:17.232Z,52.8
2017-03-17T12:52:19.096Z,52.8
2017-03-17T12:53:21.647Z,52.8
2017-03-17T12:54:23.527Z,52.3
2017-03-17T12:55:25.718Z,52.7
2017-03-17T12:56:27.580Z,52.9
2017-03-17T12:57:29.462Z,53
2017-03-17T12:58:31.613Z,53.3
2017-03-17T12:59:33.478Z,53.2
2017-03-17T13:00:35.343Z,53.3
2017-03-17T13:01:37.211Z,53.5
2017-03-17T13:02:39.081Z,53.5
2017-03-17T13:03:40.961Z,53.6
2017-03-17T13:04:42.863Z,53.5
2017-03-17T13:05:44.745Z,53.3
2017-03-17T13:06:46.604Z,53.4
2017-03-17T13:07:48.707Z,53.5
2017-03-17T13:08:50.565Z,53.5
2017-03-17T13:09:52.520Z,53.5
2017-03-17T13:10:54.395Z,53.4
2017-03-17T13:11:56.259Z,53.3
2017-03-17T13:12:58.155Z,53.3
2017-03-17T13:14:00.376Z,53.3
2017-03-17T13:15:02.229Z,53.3
2017-03-17T13:16:04.090Z,53.5
2017-03-17T13:17:05.958Z,53.6
2017-03-17T13:18:07.827Z,53.6
2017-03-17T13:19:09.891Z,53.6
2017-03-17T13:20:11.751Z,53.5
2017-03-17T13:21:13.815Z,53.5
2017-03-17T13:22:15.674Z,53.6
2017-03-17T13:23:17.654Z,53.7
2017-03-17T13:24:20.202Z,53.6
2017-03-17T13:25:22.064Z,53.6
2017-03-17T13:26:23.933Z,53.6
2017-03-17T13:27:25.876Z,53.6
2017-03-17T13:28:28.065Z,53.7
2017-03-17T13:29:30.295Z,53.7
2017-03-17T13:30:32.154Z,53.9
2017-03-17T13:31:34.005Z,53.9
2017-03-17T13:32:35.862Z,53.8
2017-03-17T13:33:37.741Z,53.6
2017-03-17T13:34:39.591Z,53.7
2017-03-17T13:35:41.632Z,53.7
2017-03-17T13:36:43.484Z,53.8
2017-03-17T13:37:45.360Z,53.8
2017-03-17T13:38:47.565Z,53.7
2017-03-17T13:39:49.424Z,53.8
2017-03-17T13:40:51.422Z,53.6
2017-03-17T13:41:53.302Z,53.6
2017-03-17T13:42:55.500Z,53.6
2017-03-17T13:43:57.357Z,53.6
2017-03-17T13:45:00.264Z,53.6
2017-03-17T13:46:02.139Z,53.5
2017-03-17T13:47:03.994Z,53.6
2017-03-17T13:48:05.861Z,53.6
2017-03-17T13:49:07.738Z,53.6
2017-03-17T13:50:09.949Z,53.6
2017-03-17T13:51:11.829Z,53.6
2017-03-17T13:52:14.027Z,53.5
2017-03-17T13:53:15.933Z,53.5